sensor_id;sensor_type;location;lat;lon;timestamp;temperature;humidity
69715;HTU21D;56981;53.532;49.398;2023-09-19T00:00:44;11.45;87.19
69715;HTU21D;56981;53.532;49.398;2023-09-19T00:03:13;11.44;87.32
69715;HTU21D;56981;53.532;49.398;2023-09-19T00:05:39;11.43;87.61
69715;HTU21D;56981;53.532;49.398;2023-09-19T00:08:10;11.41;87.25
69715;HTU21D;56981;53.532;49.398;2023-09-19T00:10:41;11.41;87.24
69715;HTU21D;56981;53.532;49.398;2023-09-19T00:13:08;11.41;87.48
69715;HTU21D;56981;53.532;49.398;2023-09-19T00:15:40;11.39;86.85
69715;HTU21D;56981;53.532;49.398;2023-09-19T00:18:08;11.36;87.01
69715;HTU21D;56981;53.532;49.398;2023-09-19T00:20:39;11.28;87.09
69715;HTU21D;56981;53.532;49.398;2023-09-19T00:23:08;11.26;87.01
69715;HTU21D;56981;53.532;49.398;2023-09-19T00:25:37;11.24;87.42
69715;HTU21D;56981;53.532;49.398;2023-09-19T00:28:05;11.18;86.85
69715;HTU21D;56981;53.532;49.398;2023-09-19T00:30:35;11.15;87.22
69715;HTU21D;56981;53.532;49.398;2023-09-19T00:33:01;11.14;87.01
69715;HTU21D;56981;53.532;49.398;2023-09-19T00:35:33;11.12;86.86
69715;HTU21D;56981;53.532;49.398;2023-09-19T00:37:59;11.11;87.38
69715;HTU21D;56981;53.532;49.398;2023-09-19T00:40:26;11.11;87.27
69715;HTU21D;56981;53.532;49.398;2023-09-19T00:42:57;11.11;87.76
69715;HTU21D;56981;53.532;49.398;2023-09-19T00:45:27;11.10;87.86
69715;HTU21D;56981;53.532;49.398;2023-09-19T00:47:56;11.04;87.82
69715;HTU21D;56981;53.532;49.398;2023-09-19T00:50:25;11.02;88.07
69715;HTU21D;56981;53.532;49.398;2023-09-19T00:52:55;10.99;88.31
69715;HTU21D;56981;53.532;49.398;2023-09-19T00:55:24;10.99;88.38
69715;HTU21D;56981;53.532;49.398;2023-09-19T00:57:51;11.00;87.89
69715;HTU21D;56981;53.532;49.398;2023-09-19T01:00:18;11.01;88.85
69715;HTU21D;56981;53.532;49.398;2023-09-19T01:02:46;11.03;88.88
69715;HTU21D;56981;53.532;49.398;2023-09-19T01:05:13;11.04;88.96
69715;HTU21D;56981;53.532;49.398;2023-09-19T01:07:42;11.04;89.15
69715;HTU21D;56981;53.532;49.398;2023-09-19T01:10:12;11.08;88.50
69715;HTU21D;56981;53.532;49.398;2023-09-19T01:13:03;11.10;88.18
69715;HTU21D;56981;53.532;49.398;2023-09-19T01:29:44;11.05;87.28
69715;HTU21D;56981;53.532;49.398;2023-09-19T01:32:13;11.11;87.24
69715;HTU21D;56981;53.532;49.398;2023-09-19T01:37:12;11.11;87.51
69715;HTU21D;56981;53.532;49.398;2023-09-19T01:39:40;11.11;87.18
69715;HTU21D;56981;53.532;49.398;2023-09-19T01:42:15;11.14;87.07
69715;HTU21D;56981;53.532;49.398;2023-09-19T01:44:51;11.14;87.18
69715;HTU21D;56981;53.532;49.398;2023-09-19T01:48:05;11.16;87.03
69715;HTU21D;56981;53.532;49.398;2023-09-19T01:50:43;11.17;86.93
69715;HTU21D;56981;53.532;49.398;2023-09-19T01:55:48;11.17;86.64
69715;HTU21D;56981;53.532;49.398;2023-09-19T01:58:34;11.23;86.80
69715;HTU21D;56981;53.532;49.398;2023-09-19T02:01:07;11.22;86.64
69715;HTU21D;56981;53.532;49.398;2023-09-19T02:03:35;11.19;86.72
69715;HTU21D;56981;53.532;49.398;2023-09-19T02:06:02;11.20;86.56
69715;HTU21D;56981;53.532;49.398;2023-09-19T02:08:30;11.24;86.58
69715;HTU21D;56981;53.532;49.398;2023-09-19T02:10:59;11.24;86.51
69715;HTU21D;56981;53.532;49.398;2023-09-19T02:13:27;11.23;86.66
69715;HTU21D;56981;53.532;49.398;2023-09-19T02:15:54;11.25;86.57
69715;HTU21D;56981;53.532;49.398;2023-09-19T02:18:21;11.25;86.30
69715;HTU21D;56981;53.532;49.398;2023-09-19T02:20:46;11.27;86.39
69715;HTU21D;56981;53.532;49.398;2023-09-19T02:23:14;11.27;86.51
69715;HTU21D;56981;53.532;49.398;2023-09-19T02:25:41;11.30;86.48
69715;HTU21D;56981;53.532;49.398;2023-09-19T02:28:09;11.30;85.93
69715;HTU21D;56981;53.532;49.398;2023-09-19T02:30:36;11.32;86.21
69715;HTU21D;56981;53.532;49.398;2023-09-19T02:33:03;11.33;86.00
69715;HTU21D;56981;53.532;49.398;2023-09-19T02:35:30;11.33;86.47
69715;HTU21D;56981;53.532;49.398;2023-09-19T02:38:00;11.33;86.30
69715;HTU21D;56981;53.532;49.398;2023-09-19T02:40:27;11.34;86.41
69715;HTU21D;56981;53.532;49.398;2023-09-19T02:42:55;11.40;85.95
69715;HTU21D;56981;53.532;49.398;2023-09-19T02:45:22;11.45;85.24
69715;HTU21D;56981;53.532;49.398;2023-09-19T02:47:50;11.55;84.96
69715;HTU21D;56981;53.532;49.398;2023-09-19T02:50:16;11.58;84.96
69715;HTU21D;56981;53.532;49.398;2023-09-19T02:52:44;11.60;85.03
69715;HTU21D;56981;53.532;49.398;2023-09-19T02:55:11;11.74;84.84
69715;HTU21D;56981;53.532;49.398;2023-09-19T02:57:38;12.19;84.11
69715;HTU21D;56981;53.532;49.398;2023-09-19T03:00:10;12.60;84.16
69715;HTU21D;56981;53.532;49.398;2023-09-19T03:02:37;13.00;83.46
69715;HTU21D;56981;53.532;49.398;2023-09-19T03:05:05;13.16;83.57
69715;HTU21D;56981;53.532;49.398;2023-09-19T03:07:33;13.36;83.01
69715;HTU21D;56981;53.532;49.398;2023-09-19T03:10:00;13.60;83.27
69715;HTU21D;56981;53.532;49.398;2023-09-19T03:12:26;14.01;82.81
69715;HTU21D;56981;53.532;49.398;2023-09-19T03:14:52;14.30;81.27
69715;HTU21D;56981;53.532;49.398;2023-09-19T03:17:18;14.37;80.52
69715;HTU21D;56981;53.532;49.398;2023-09-19T03:19:45;14.48;80.27
69715;HTU21D;56981;53.532;49.398;2023-09-19T03:22:14;14.51;79.93
69715;HTU21D;56981;53.532;49.398;2023-09-19T03:24:41;14.60;79.50
69715;HTU21D;56981;53.532;49.398;2023-09-19T03:27:10;14.86;79.04
69715;HTU21D;56981;53.532;49.398;2023-09-19T03:29:36;15.25;77.07
69715;HTU21D;56981;53.532;49.398;2023-09-19T03:32:05;15.23;77.01
69715;HTU21D;56981;53.532;49.398;2023-09-19T03:34:32;15.25;77.15
69715;HTU21D;56981;53.532;49.398;2023-09-19T03:36:58;15.31;76.84
69715;HTU21D;56981;53.532;49.398;2023-09-19T03:39:24;15.40;76.66
69715;HTU21D;56981;53.532;49.398;2023-09-19T03:41:50;15.47;76.44
69715;HTU21D;56981;53.532;49.398;2023-09-19T03:44:17;15.92;74.09
69715;HTU21D;56981;53.532;49.398;2023-09-19T03:46:43;16.08;74.09
69715;HTU21D;56981;53.532;49.398;2023-09-19T03:49:09;16.47;73.44
69715;HTU21D;56981;53.532;49.398;2023-09-19T03:51:36;16.48;72.16
69715;HTU21D;56981;53.532;49.398;2023-09-19T03:54:03;16.41;72.83
69715;HTU21D;56981;53.532;49.398;2023-09-19T03:56:30;16.32;73.09
69715;HTU21D;56981;53.532;49.398;2023-09-19T03:58:58;16.28;73.48
69715;HTU21D;56981;53.532;49.398;2023-09-19T04:01:24;16.25;73.42
69715;HTU21D;56981;53.532;49.398;2023-09-19T04:03:50;16.10;74.14
69715;HTU21D;56981;53.532;49.398;2023-09-19T04:06:19;16.05;74.38
69715;HTU21D;56981;53.532;49.398;2023-09-19T04:08:45;16.02;74.46
69715;HTU21D;56981;53.532;49.398;2023-09-19T04:11:14;15.96;74.98
69715;HTU21D;56981;53.532;49.398;2023-09-19T04:13:42;15.85;75.44
69715;HTU21D;56981;53.532;49.398;2023-09-19T04:16:12;15.86;75.38
69715;HTU21D;56981;53.532;49.398;2023-09-19T04:18:38;16.01;75.25
69715;HTU21D;56981;53.532;49.398;2023-09-19T04:21:05;17.58;70.26
69715;HTU21D;56981;53.532;49.398;2023-09-19T04:23:36;19.06;63.95
69715;HTU21D;56981;53.532;49.398;2023-09-19T04:26:02;20.15;60.37
69715;HTU21D;56981;53.532;49.398;2023-09-19T04:28:32;21.05;57.39
69715;HTU21D;56981;53.532;49.398;2023-09-19T04:31:00;20.63;57.88
69715;HTU21D;56981;53.532;49.398;2023-09-19T04:33:30;20.45;58.30
69715;HTU21D;56981;53.532;49.398;2023-09-19T04:35:56;19.90;59.70
69715;HTU21D;56981;53.532;49.398;2023-09-19T04:38:23;19.46;61.96
69715;HTU21D;56981;53.532;49.398;2023-09-19T04:40:57;19.02;61.79
69715;HTU21D;56981;53.532;49.398;2023-09-19T04:43:32;18.47;63.49
69715;HTU21D;56981;53.532;49.398;2023-09-19T04:46:06;18.22;64.86
69715;HTU21D;56981;53.532;49.398;2023-09-19T04:48:36;17.90;65.50
69715;HTU21D;56981;53.532;49.398;2023-09-19T04:51:03;18.43;64.98
69715;HTU21D;56981;53.532;49.398;2023-09-19T04:53:35;19.81;59.43
69715;HTU21D;56981;53.532;49.398;2023-09-19T04:56:01;21.06;55.53
69715;HTU21D;56981;53.532;49.398;2023-09-19T04:58:31;22.06;52.52
69715;HTU21D;56981;53.532;49.398;2023-09-19T05:00:57;22.51;50.72
69715;HTU21D;56981;53.532;49.398;2023-09-19T05:03:23;22.01;51.98
69715;HTU21D;56981;53.532;49.398;2023-09-19T05:05:49;21.33;53.91
69715;HTU21D;56981;53.532;49.398;2023-09-19T05:08:18;20.92;55.76
69715;HTU21D;56981;53.532;49.398;2023-09-19T05:10:44;21.37;53.08
69715;HTU21D;56981;53.532;49.398;2023-09-19T05:13:11;22.20;51.04
69715;HTU21D;56981;53.532;49.398;2023-09-19T05:15:37;23.00;48.27
69715;HTU21D;56981;53.532;49.398;2023-09-19T05:18:05;22.88;48.18
69715;HTU21D;56981;53.532;49.398;2023-09-19T05:20:32;22.05;50.77
69715;HTU21D;56981;53.532;49.398;2023-09-19T05:23:03;21.61;52.02
69715;HTU21D;56981;53.532;49.398;2023-09-19T05:25:33;21.48;51.98
69715;HTU21D;56981;53.532;49.398;2023-09-19T05:28:04;21.02;54.18
69715;HTU21D;56981;53.532;49.398;2023-09-19T05:30:32;20.79;54.48
69715;HTU21D;56981;53.532;49.398;2023-09-19T05:32:59;20.43;55.83
69715;HTU21D;56981;53.532;49.398;2023-09-19T05:35:25;20.29;55.89
69715;HTU21D;56981;53.532;49.398;2023-09-19T05:37:52;20.42;55.37
69715;HTU21D;56981;53.532;49.398;2023-09-19T05:40:19;20.37;55.48
69715;HTU21D;56981;53.532;49.398;2023-09-19T05:42:49;20.25;55.97
69715;HTU21D;56981;53.532;49.398;2023-09-19T05:45:19;20.02;56.97
69715;HTU21D;56981;53.532;49.398;2023-09-19T05:47:53;19.88;56.97
69715;HTU21D;56981;53.532;49.398;2023-09-19T05:50:30;19.86;57.93
69715;HTU21D;56981;53.532;49.398;2023-09-19T05:52:58;20.14;57.29
69715;HTU21D;56981;53.532;49.398;2023-09-19T05:55:24;20.60;54.33
69715;HTU21D;56981;53.532;49.398;2023-09-19T05:57:51;20.90;52.39
69715;HTU21D;56981;53.532;49.398;2023-09-19T06:00:24;22.41;49.36
69715;HTU21D;56981;53.532;49.398;2023-09-19T06:02:54;23.38;45.64
69715;HTU21D;56981;53.532;49.398;2023-09-19T06:05:21;24.00;44.20
69715;HTU21D;56981;53.532;49.398;2023-09-19T06:07:48;24.74;42.64
69715;HTU21D;56981;53.532;49.398;2023-09-19T06:10:16;25.15;40.81
69715;HTU21D;56981;53.532;49.398;2023-09-19T06:12:43;24.71;41.94
69715;HTU21D;56981;53.532;49.398;2023-09-19T06:15:11;24.01;42.72
69715;HTU21D;56981;53.532;49.398;2023-09-19T06:17:52;23.10;44.24
69715;HTU21D;56981;53.532;49.398;2023-09-19T06:20:23;22.58;45.87
69715;HTU21D;56981;53.532;49.398;2023-09-19T06:22:54;22.10;46.40
69715;HTU21D;56981;53.532;49.398;2023-09-19T06:25:21;21.93;47.19
69715;HTU21D;56981;53.532;49.398;2023-09-19T06:27:49;21.78;47.10
69715;HTU21D;56981;53.532;49.398;2023-09-19T06:30:18;21.95;45.31
69715;HTU21D;56981;53.532;49.398;2023-09-19T06:32:44;21.72;46.93
69715;HTU21D;56981;53.532;49.398;2023-09-19T06:35:12;21.59;47.12
69715;HTU21D;56981;53.532;49.398;2023-09-19T06:37:39;21.57;47.86
69715;HTU21D;56981;53.532;49.398;2023-09-19T06:40:14;21.69;47.38
69715;HTU21D;56981;53.532;49.398;2023-09-19T06:42:45;21.53;47.76
69715;HTU21D;56981;53.532;49.398;2023-09-19T06:45:15;21.13;48.73
69715;HTU21D;56981;53.532;49.398;2023-09-19T06:47:51;21.17;48.96
69715;HTU21D;56981;53.532;49.398;2023-09-19T06:50:24;22.02;46.53
69715;HTU21D;56981;53.532;49.398;2023-09-19T06:52:52;22.35;45.12
69715;HTU21D;56981;53.532;49.398;2023-09-19T06:55:21;22.17;45.15
69715;HTU21D;56981;53.532;49.398;2023-09-19T06:57:49;22.69;44.19
69715;HTU21D;56981;53.532;49.398;2023-09-19T07:00:19;23.12;43.93
69715;HTU21D;56981;53.532;49.398;2023-09-19T07:02:59;23.46;42.55
69715;HTU21D;56981;53.532;49.398;2023-09-19T07:05:27;23.21;42.81
69715;HTU21D;56981;53.532;49.398;2023-09-19T07:07:54;22.95;43.79
69715;HTU21D;56981;53.532;49.398;2023-09-19T07:10:28;22.95;43.29
69715;HTU21D;56981;53.532;49.398;2023-09-19T07:12:58;22.90;43.38
69715;HTU21D;56981;53.532;49.398;2023-09-19T07:15:25;22.96;43.81
69715;HTU21D;56981;53.532;49.398;2023-09-19T07:17:53;22.81;44.48
69715;HTU21D;56981;53.532;49.398;2023-09-19T07:20:22;22.94;44.61
69715;HTU21D;56981;53.532;49.398;2023-09-19T07:22:49;22.86;44.08
69715;HTU21D;56981;53.532;49.398;2023-09-19T07:25:26;22.73;41.68
69715;HTU21D;56981;53.532;49.398;2023-09-19T07:27:55;22.96;40.20
69715;HTU21D;56981;53.532;49.398;2023-09-19T07:30:21;23.03;39.31
69715;HTU21D;56981;53.532;49.398;2023-09-19T07:32:50;23.07;37.33
69715;HTU21D;56981;53.532;49.398;2023-09-19T07:35:16;22.87;38.51
69715;HTU21D;56981;53.532;49.398;2023-09-19T07:37:45;22.55;37.88
69715;HTU21D;56981;53.532;49.398;2023-09-19T07:40:18;22.44;37.50
69715;HTU21D;56981;53.532;49.398;2023-09-19T07:42:46;22.41;37.15
69715;HTU21D;56981;53.532;49.398;2023-09-19T07:45:13;22.38;37.45
69715;HTU21D;56981;53.532;49.398;2023-09-19T07:47:47;22.18;38.98
69715;HTU21D;56981;53.532;49.398;2023-09-19T07:50:14;22.19;40.09
69715;HTU21D;56981;53.532;49.398;2023-09-19T07:52:42;22.48;40.19
69715;HTU21D;56981;53.532;49.398;2023-09-19T07:55:08;22.81;39.42
69715;HTU21D;56981;53.532;49.398;2023-09-19T07:57:38;22.57;38.68
69715;HTU21D;56981;53.532;49.398;2023-09-19T08:00:06;22.32;39.41
69715;HTU21D;56981;53.532;49.398;2023-09-19T08:02:36;22.04;40.30
69715;HTU21D;56981;53.532;49.398;2023-09-19T08:05:06;22.07;40.06
69715;HTU21D;56981;53.532;49.398;2023-09-19T08:07:39;22.34;39.52
69715;HTU21D;56981;53.532;49.398;2023-09-19T08:10:06;22.57;38.94
69715;HTU21D;56981;53.532;49.398;2023-09-19T08:12:40;23.11;37.95
69715;HTU21D;56981;53.532;49.398;2023-09-19T08:15:19;23.39;36.37
69715;HTU21D;56981;53.532;49.398;2023-09-19T08:17:46;23.69;36.71
69715;HTU21D;56981;53.532;49.398;2023-09-19T08:20:13;23.83;35.90
69715;HTU21D;56981;53.532;49.398;2023-09-19T08:22:47;23.52;37.22
69715;HTU21D;56981;53.532;49.398;2023-09-19T08:25:17;23.03;38.58
69715;HTU21D;56981;53.532;49.398;2023-09-19T08:27:45;22.76;38.54
69715;HTU21D;56981;53.532;49.398;2023-09-19T08:30:20;22.57;39.23
69715;HTU21D;56981;53.532;49.398;2023-09-19T08:32:50;22.08;39.94
69715;HTU21D;56981;53.532;49.398;2023-09-19T08:35:16;21.74;39.20
69715;HTU21D;56981;53.532;49.398;2023-09-19T08:37:43;21.44;39.50
69715;HTU21D;56981;53.532;49.398;2023-09-19T08:40:12;21.46;40.07
69715;HTU21D;56981;53.532;49.398;2023-09-19T08:42:55;21.70;39.62
69715;HTU21D;56981;53.532;49.398;2023-09-19T08:45:22;22.02;38.82
69715;HTU21D;56981;53.532;49.398;2023-09-19T08:48:23;22.16;37.93
69715;HTU21D;56981;53.532;49.398;2023-09-19T08:50:53;22.29;37.69
69715;HTU21D;56981;53.532;49.398;2023-09-19T08:53:51;22.27;36.62
69715;HTU21D;56981;53.532;49.398;2023-09-19T08:56:18;22.39;36.88
69715;HTU21D;56981;53.532;49.398;2023-09-19T08:58:54;22.43;36.30
69715;HTU21D;56981;53.532;49.398;2023-09-19T09:01:22;22.04;37.37
69715;HTU21D;56981;53.532;49.398;2023-09-19T09:03:52;21.79;38.24
69715;HTU21D;56981;53.532;49.398;2023-09-19T09:06:20;21.77;38.09
69715;HTU21D;56981;53.532;49.398;2023-09-19T09:08:47;21.58;40.30
69715;HTU21D;56981;53.532;49.398;2023-09-19T09:11:15;21.38;41.94
69715;HTU21D;56981;53.532;49.398;2023-09-19T09:13:45;21.07;42.29
69715;HTU21D;56981;53.532;49.398;2023-09-19T09:16:12;20.90;42.71
69715;HTU21D;56981;53.532;49.398;2023-09-19T09:18:40;20.70;42.65
69715;HTU21D;56981;53.532;49.398;2023-09-19T09:21:06;20.62;42.56
69715;HTU21D;56981;53.532;49.398;2023-09-19T09:23:35;20.72;42.39
69715;HTU21D;56981;53.532;49.398;2023-09-19T09:26:01;20.76;42.13
69715;HTU21D;56981;53.532;49.398;2023-09-19T09:28:34;20.86;41.55
69715;HTU21D;56981;53.532;49.398;2023-09-19T09:31:02;20.94;42.27
69715;HTU21D;56981;53.532;49.398;2023-09-19T09:33:35;20.78;42.62
69715;HTU21D;56981;53.532;49.398;2023-09-19T09:36:02;20.75;42.24
69715;HTU21D;56981;53.532;49.398;2023-09-19T09:38:43;20.66;41.99
69715;HTU21D;56981;53.532;49.398;2023-09-19T09:41:09;20.55;42.31
69715;HTU21D;56981;53.532;49.398;2023-09-19T09:43:41;20.56;41.90
69715;HTU21D;56981;53.532;49.398;2023-09-19T09:46:16;20.51;42.52
69715;HTU21D;56981;53.532;49.398;2023-09-19T09:51:44;20.35;42.71
69715;HTU21D;56981;53.532;49.398;2023-09-19T09:54:24;20.43;42.75
69715;HTU21D;56981;53.532;49.398;2023-09-19T09:57:00;20.46;41.88
69715;HTU21D;56981;53.532;49.398;2023-09-19T09:59:47;20.37;41.94
69715;HTU21D;56981;53.532;49.398;2023-09-19T10:02:14;20.32;42.48
69715;HTU21D;56981;53.532;49.398;2023-09-19T10:04:46;20.31;42.60
69715;HTU21D;56981;53.532;49.398;2023-09-19T10:07:28;20.24;43.58
69715;HTU21D;56981;53.532;49.398;2023-09-19T10:10:00;20.04;44.21
69715;HTU21D;56981;53.532;49.398;2023-09-19T10:12:32;20.01;44.23
69715;HTU21D;56981;53.532;49.398;2023-09-19T10:15:04;19.98;44.03
69715;HTU21D;56981;53.532;49.398;2023-09-19T10:17:34;19.98;43.70
69715;HTU21D;56981;53.532;49.398;2023-09-19T10:20:02;19.94;43.55
69715;HTU21D;56981;53.532;49.398;2023-09-19T10:22:45;20.11;43.44
69715;HTU21D;56981;53.532;49.398;2023-09-19T10:25:25;20.34;42.53
69715;HTU21D;56981;53.532;49.398;2023-09-19T10:28:00;20.25;42.03
69715;HTU21D;56981;53.532;49.398;2023-09-19T10:30:32;20.17;43.11
69715;HTU21D;56981;53.532;49.398;2023-09-19T10:33:03;20.24;42.42
69715;HTU21D;56981;53.532;49.398;2023-09-19T10:35:32;20.13;41.84
69715;HTU21D;56981;53.532;49.398;2023-09-19T10:38:10;19.99;42.34
69715;HTU21D;56981;53.532;49.398;2023-09-19T10:40:37;19.74;42.89
69715;HTU21D;56981;53.532;49.398;2023-09-19T10:43:12;19.68;43.75
69715;HTU21D;56981;53.532;49.398;2023-09-19T10:45:46;19.71;44.07
69715;HTU21D;56981;53.532;49.398;2023-09-19T10:48:16;19.53;44.01
69715;HTU21D;56981;53.532;49.398;2023-09-19T10:50:52;19.65;44.25
69715;HTU21D;56981;53.532;49.398;2023-09-19T10:53:21;19.77;44.35
69715;HTU21D;56981;53.532;49.398;2023-09-19T10:55:59;19.73;43.74
69715;HTU21D;56981;53.532;49.398;2023-09-19T10:58:31;19.79;43.88
69715;HTU21D;56981;53.532;49.398;2023-09-19T11:01:03;19.94;43.14
69715;HTU21D;56981;53.532;49.398;2023-09-19T11:03:38;19.92;42.90
69715;HTU21D;56981;53.532;49.398;2023-09-19T11:06:16;19.94;43.74
69715;HTU21D;56981;53.532;49.398;2023-09-19T11:09:02;19.95;42.27
69715;HTU21D;56981;53.532;49.398;2023-09-19T11:11:46;20.06;42.58
69715;HTU21D;56981;53.532;49.398;2023-09-19T11:30:38;19.94;41.66
69715;HTU21D;56981;53.532;49.398;2023-09-19T11:43:52;19.60;41.49
69715;HTU21D;56981;53.532;49.398;2023-09-19T11:46:21;19.59;42.26
69715;HTU21D;56981;53.532;49.398;2023-09-19T11:48:48;19.53;43.30
69715;HTU21D;56981;53.532;49.398;2023-09-19T11:51:23;19.42;41.98
69715;HTU21D;56981;53.532;49.398;2023-09-19T11:53:58;19.39;42.32
69715;HTU21D;56981;53.532;49.398;2023-09-19T11:56:30;19.29;42.59
69715;HTU21D;56981;53.532;49.398;2023-09-19T11:58:57;19.14;42.42
69715;HTU21D;56981;53.532;49.398;2023-09-19T12:01:31;19.02;43.33
69715;HTU21D;56981;53.532;49.398;2023-09-19T12:03:59;18.86;43.32
69715;HTU21D;56981;53.532;49.398;2023-09-19T12:06:26;18.77;43.68
69715;HTU21D;56981;53.532;49.398;2023-09-19T12:08:56;18.70;45.14
69715;HTU21D;56981;53.532;49.398;2023-09-19T12:11:29;18.68;44.47
69715;HTU21D;56981;53.532;49.398;2023-09-19T12:13:59;18.66;45.40
69715;HTU21D;56981;53.532;49.398;2023-09-19T12:16:26;18.62;44.77
69715;HTU21D;56981;53.532;49.398;2023-09-19T12:18:56;18.57;45.23
69715;HTU21D;56981;53.532;49.398;2023-09-19T12:21:29;18.52;44.27
69715;HTU21D;56981;53.532;49.398;2023-09-19T12:24:27;18.41;44.80
69715;HTU21D;56981;53.532;49.398;2023-09-19T12:27:03;18.39;44.87
69715;HTU21D;56981;53.532;49.398;2023-09-19T12:29:32;18.32;44.58
69715;HTU21D;56981;53.532;49.398;2023-09-19T12:32:07;18.26;45.19
69715;HTU21D;56981;53.532;49.398;2023-09-19T12:34:33;18.20;45.28
69715;HTU21D;56981;53.532;49.398;2023-09-19T12:37:14;18.10;45.53
69715;HTU21D;56981;53.532;49.398;2023-09-19T12:39:51;18.00;45.80
69715;HTU21D;56981;53.532;49.398;2023-09-19T12:42:25;17.97;45.10
69715;HTU21D;56981;53.532;49.398;2023-09-19T12:44:58;17.94;45.96
69715;HTU21D;56981;53.532;49.398;2023-09-19T12:47:28;17.96;45.32
69715;HTU21D;56981;53.532;49.398;2023-09-19T12:50:06;18.00;46.30
69715;HTU21D;56981;53.532;49.398;2023-09-19T12:52:37;18.04;46.15
69715;HTU21D;56981;53.532;49.398;2023-09-19T12:55:04;17.97;46.69
69715;HTU21D;56981;53.532;49.398;2023-09-19T12:57:34;17.95;45.60
69715;HTU21D;56981;53.532;49.398;2023-09-19T13:00:04;17.97;45.61
69715;HTU21D;56981;53.532;49.398;2023-09-19T13:02:31;17.88;44.55
69715;HTU21D;56981;53.532;49.398;2023-09-19T13:04:58;17.83;45.83
69715;HTU21D;56981;53.532;49.398;2023-09-19T13:07:45;17.87;44.93
69715;HTU21D;56981;53.532;49.398;2023-09-19T13:10:13;17.84;45.93
69715;HTU21D;56981;53.532;49.398;2023-09-19T13:12:43;17.84;46.26
69715;HTU21D;56981;53.532;49.398;2023-09-19T13:15:14;17.81;45.70
69715;HTU21D;56981;53.532;49.398;2023-09-19T13:17:47;17.75;47.03
69715;HTU21D;56981;53.532;49.398;2023-09-19T13:20:24;17.73;46.81
69715;HTU21D;56981;53.532;49.398;2023-09-19T13:22:54;17.70;46.52
69715;HTU21D;56981;53.532;49.398;2023-09-19T13:25:25;17.66;47.20
69715;HTU21D;56981;53.532;49.398;2023-09-19T13:27:56;17.68;47.18
69715;HTU21D;56981;53.532;49.398;2023-09-19T13:30:27;17.61;46.93
69715;HTU21D;56981;53.532;49.398;2023-09-19T13:33:08;17.62;47.04
69715;HTU21D;56981;53.532;49.398;2023-09-19T13:35:35;17.56;46.60
69715;HTU21D;56981;53.532;49.398;2023-09-19T13:38:04;17.53;46.71
69715;HTU21D;56981;53.532;49.398;2023-09-19T13:40:30;17.49;46.93
69715;HTU21D;56981;53.532;49.398;2023-09-19T13:43:02;17.46;47.45
69715;HTU21D;56981;53.532;49.398;2023-09-19T13:45:28;17.36;48.53
69715;HTU21D;56981;53.532;49.398;2023-09-19T13:47:56;17.32;49.34
69715;HTU21D;56981;53.532;49.398;2023-09-19T13:50:23;17.28;49.08
69715;HTU21D;56981;53.532;49.398;2023-09-19T13:52:50;17.22;49.91
69715;HTU21D;56981;53.532;49.398;2023-09-19T13:55:17;17.13;50.07
69715;HTU21D;56981;53.532;49.398;2023-09-19T13:57:49;17.07;50.32
69715;HTU21D;56981;53.532;49.398;2023-09-19T14:00:23;17.03;50.10
69715;HTU21D;56981;53.532;49.398;2023-09-19T14:02:50;16.94;50.17
69715;HTU21D;56981;53.532;49.398;2023-09-19T14:05:17;16.94;50.66
69715;HTU21D;56981;53.532;49.398;2023-09-19T14:07:43;16.89;50.82
69715;HTU21D;56981;53.532;49.398;2023-09-19T14:10:11;16.80;50.63
69715;HTU21D;56981;53.532;49.398;2023-09-19T14:12:38;16.80;51.02
69715;HTU21D;56981;53.532;49.398;2023-09-19T14:15:07;16.80;51.92
69715;HTU21D;56981;53.532;49.398;2023-09-19T14:17:34;16.75;51.31
69715;HTU21D;56981;53.532;49.398;2023-09-19T14:20:01;16.67;52.11
69715;HTU21D;56981;53.532;49.398;2023-09-19T14:22:27;16.63;52.21
69715;HTU21D;56981;53.532;49.398;2023-09-19T14:24:54;16.58;53.17
69715;HTU21D;56981;53.532;49.398;2023-09-19T14:27:20;16.48;53.83
69715;HTU21D;56981;53.532;49.398;2023-09-19T14:29:47;16.42;52.38
69715;HTU21D;56981;53.532;49.398;2023-09-19T14:32:13;16.34;53.43
69715;HTU21D;56981;53.532;49.398;2023-09-19T14:34:39;16.30;53.52
69715;HTU21D;56981;53.532;49.398;2023-09-19T14:37:08;16.19;53.15
69715;HTU21D;56981;53.532;49.398;2023-09-19T14:39:35;16.14;53.08
69715;HTU21D;56981;53.532;49.398;2023-09-19T14:42:03;16.10;54.52
69715;HTU21D;56981;53.532;49.398;2023-09-19T14:44:29;16.05;54.59
69715;HTU21D;56981;53.532;49.398;2023-09-19T14:46:55;15.99;54.46
69715;HTU21D;56981;53.532;49.398;2023-09-19T14:49:21;15.97;54.15
69715;HTU21D;56981;53.532;49.398;2023-09-19T14:51:47;15.87;54.46
69715;HTU21D;56981;53.532;49.398;2023-09-19T14:54:14;15.80;56.04
69715;HTU21D;56981;53.532;49.398;2023-09-19T14:56:43;15.74;57.64
69715;HTU21D;56981;53.532;49.398;2023-09-19T14:59:09;15.68;57.18
69715;HTU21D;56981;53.532;49.398;2023-09-19T15:01:36;15.60;57.73
69715;HTU21D;56981;53.532;49.398;2023-09-19T15:04:03;15.51;57.43
69715;HTU21D;56981;53.532;49.398;2023-09-19T15:06:29;15.44;57.99
69715;HTU21D;56981;53.532;49.398;2023-09-19T15:08:56;15.37;58.08
69715;HTU21D;56981;53.532;49.398;2023-09-19T15:11:22;15.29;57.99
69715;HTU21D;56981;53.532;49.398;2023-09-19T15:13:52;15.24;59.67
69715;HTU21D;56981;53.532;49.398;2023-09-19T15:16:19;15.13;58.78
69715;HTU21D;56981;53.532;49.398;2023-09-19T15:18:45;15.09;60.35
69715;HTU21D;56981;53.532;49.398;2023-09-19T15:21:14;15.02;59.70
69715;HTU21D;56981;53.532;49.398;2023-09-19T15:23:41;14.95;59.27
69715;HTU21D;56981;53.532;49.398;2023-09-19T15:26:11;14.87;60.41
69715;HTU21D;56981;53.532;49.398;2023-09-19T15:28:37;14.81;60.93
69715;HTU21D;56981;53.532;49.398;2023-09-19T15:31:09;14.75;61.09
69715;HTU21D;56981;53.532;49.398;2023-09-19T15:33:36;14.73;62.34
69715;HTU21D;56981;53.532;49.398;2023-09-19T15:36:07;14.64;60.28
69715;HTU21D;56981;53.532;49.398;2023-09-19T15:39:06;14.63;61.34
69715;HTU21D;56981;53.532;49.398;2023-09-19T15:41:38;14.55;60.54
69715;HTU21D;56981;53.532;49.398;2023-09-19T15:44:11;14.51;60.95
69715;HTU21D;56981;53.532;49.398;2023-09-19T15:46:37;14.43;62.42
69715;HTU21D;56981;53.532;49.398;2023-09-19T15:49:04;14.37;62.05
69715;HTU21D;56981;53.532;49.398;2023-09-19T15:51:34;14.33;63.08
69715;HTU21D;56981;53.532;49.398;2023-09-19T15:54:12;14.28;63.23
69715;HTU21D;56981;53.532;49.398;2023-09-19T15:56:50;14.24;63.38
69715;HTU21D;56981;53.532;49.398;2023-09-19T15:59:17;14.14;64.04
69715;HTU21D;56981;53.532;49.398;2023-09-19T16:01:44;14.07;64.62
69715;HTU21D;56981;53.532;49.398;2023-09-19T16:04:11;14.05;65.92
69715;HTU21D;56981;53.532;49.398;2023-09-19T16:06:38;14.00;65.43
69715;HTU21D;56981;53.532;49.398;2023-09-19T16:09:05;13.94;65.14